createdAt,value
2018-07-15T00:01:12.466Z,13.20
2018-07-15T00:03:48.138Z,13.20
2018-07-15T00:06:23.485Z,13.20
2018-07-15T00:08:59.337Z,13.20
2018-07-15T00:11:34.723Z,13.10
2018-07-15T00:14:10.336Z,13.20
2018-07-15T00:16:45.827Z,13.20
2018-07-15T00:19:21.734Z,13.10
2018-07-15T00:21:57.253Z,13.20
2018-07-15T00:24:32.726Z,13.10
2018-07-15T00:27:08.198Z,13.10
2018-07-15T00:29:43.821Z,13.00
2018-07-15T00:32:19.305Z,13.00
2018-07-15T00:34:54.979Z,13.10
2018-07-15T00:37:30.261Z,13.00
2018-07-15T00:40:05.909Z,12.90
2018-07-15T00:42:41.449Z,12.90
2018-07-15T00:45:17.157Z,12.90
2018-07-15T00:47:52.397Z,12.90
2018-07-15T00:50:28.010Z,12.90
2018-07-15T00:53:03.497Z,12.90
2018-07-15T00:55:38.993Z,12.90
2018-07-15T00:58:14.768Z,12.90
2018-07-15T01:00:55.719Z,12.90
2018-07-15T01:03:32.273Z,12.90
2018-07-15T01:06:14.006Z,12.90
2018-07-15T01:08:49.217Z,12.90
2018-07-15T01:14:00.055Z,12.80
2018-07-15T01:16:36.996Z,12.90
2018-07-15T01:21:47.580Z,12.80
2018-07-15T01:24:23.104Z,12.70
2018-07-15T01:26:58.670Z,12.70
2018-07-15T01:29:34.103Z,12.70
2018-07-15T01:32:09.765Z,12.70
2018-07-15T01:34:45.078Z,12.70
2018-07-15T01:37:20.762Z,12.70
2018-07-15T01:39:56.065Z,12.70
2018-07-15T01:42:31.547Z,12.70
2018-07-15T01:45:07.209Z,12.70
2018-07-15T01:47:42.742Z,12.70
2018-07-15T01:50:18.110Z,12.70
2018-07-15T01:52:53.630Z,12.70
2018-07-15T01:55:28.845Z,12.70
2018-07-15T01:58:04.625Z,12.60
2018-07-15T02:00:40.102Z,12.60
2018-07-15T02:03:15.618Z,12.50
2018-07-15T02:05:50.842Z,12.60
2018-07-15T02:08:26.405Z,12.60
2018-07-15T02:11:01.638Z,12.60
2018-07-15T02:13:37.002Z,12.50
2018-07-15T02:16:12.717Z,12.60
2018-07-15T02:18:48.493Z,12.50
2018-07-15T02:21:23.830Z,12.50
2018-07-15T02:23:59.285Z,12.50
2018-07-15T02:26:34.830Z,12.50
2018-07-15T02:29:10.373Z,12.50
2018-07-15T02:31:45.832Z,12.50
2018-07-15T02:34:21.366Z,12.50
2018-07-15T02:36:56.826Z,12.50
2018-07-15T02:39:32.465Z,12.50
2018-07-15T02:42:07.985Z,12.50
2018-07-15T02:44:43.576Z,12.40
2018-07-15T02:47:18.928Z,12.40
2018-07-15T02:49:54.350Z,12.50
2018-07-15T02:52:29.632Z,12.50
2018-07-15T02:55:05.264Z,12.50
2018-07-15T02:57:41.013Z,12.50
2018-07-15T03:02:52.374Z,12.50
2018-07-15T03:05:28.047Z,12.40
2018-07-15T03:08:03.306Z,12.40
2018-07-15T03:10:38.942Z,12.40
2018-07-15T03:13:14.389Z,12.40
2018-07-15T03:15:49.928Z,12.40
2018-07-15T03:18:25.834Z,12.40
2018-07-15T03:21:01.326Z,12.50
2018-07-15T03:23:36.688Z,12.50
2018-07-15T03:26:12.322Z,12.50
2018-07-15T03:28:47.770Z,12.50
2018-07-15T03:31:23.215Z,12.50
2018-07-15T03:33:58.626Z,12.60
2018-07-15T03:39:10.141Z,12.60
2018-07-15T03:41:45.501Z,12.60
2018-07-15T03:44:20.981Z,12.60
2018-07-15T03:46:56.608Z,12.60
2018-07-15T03:49:31.806Z,12.70
2018-07-15T03:52:07.391Z,12.70
2018-07-15T03:54:42.662Z,12.70
2018-07-15T03:57:18.484Z,12.70
2018-07-15T03:59:53.968Z,12.80
2018-07-15T04:02:29.473Z,12.80
2018-07-15T04:05:04.963Z,12.90
2018-07-15T04:07:40.573Z,12.90
2018-07-15T04:10:16.043Z,13.00
2018-07-15T04:12:51.564Z,13.10
2018-07-15T04:15:27.041Z,13.10
2018-07-15T04:18:04.500Z,13.10
2018-07-15T04:20:39.683Z,13.10
2018-07-15T04:23:15.185Z,13.10
2018-07-15T04:25:50.577Z,13.20
2018-07-15T04:28:26.076Z,13.30
2018-07-15T04:31:01.624Z,13.40
2018-07-15T04:33:37.270Z,13.50
2018-07-15T04:36:12.490Z,13.60
2018-07-15T04:38:48.000Z,13.70
2018-07-15T04:41:23.486Z,13.80
2018-07-15T04:43:59.046Z,13.80
2018-07-15T04:46:34.318Z,13.80
2018-07-15T04:49:09.944Z,13.90
2018-07-15T04:51:45.169Z,14.00
2018-07-15T04:54:20.733Z,14.10
2018-07-15T04:56:56.496Z,14.10
2018-07-15T04:59:32.030Z,14.30
2018-07-15T05:02:07.569Z,14.60
2018-07-15T05:04:43.033Z,17.40
2018-07-15T05:07:18.277Z,20.70
2018-07-15T05:09:53.714Z,23.20
2018-07-15T05:12:29.053Z,25.00
2018-07-15T05:15:04.666Z,26.20
2018-07-15T05:17:40.249Z,26.90
2018-07-15T05:20:15.741Z,27.70
2018-07-15T05:22:50.922Z,27.70
2018-07-15T05:25:26.390Z,28.70
2018-07-15T05:28:01.909Z,29.10
2018-07-15T05:30:37.677Z,29.30
2018-07-15T05:33:12.849Z,30.00
2018-07-15T05:35:48.368Z,30.60
2018-07-15T05:38:24.027Z,30.30
2018-07-15T05:40:59.665Z,28.80
2018-07-15T05:43:35.153Z,29.20
2018-07-15T05:46:10.654Z,28.50
2018-07-15T05:48:48.026Z,28.90
2018-07-15T05:51:23.698Z,28.80
2018-07-15T05:53:59.229Z,28.20
2018-07-15T05:56:34.705Z,27.30
2018-07-15T05:59:10.486Z,28.40
2018-07-15T06:01:45.799Z,28.60
2018-07-15T06:06:56.718Z,27.80
2018-07-15T06:09:32.132Z,27.60
2018-07-15T06:12:07.774Z,27.90
2018-07-15T06:14:43.255Z,28.30
2018-07-15T06:17:18.766Z,28.70
2018-07-15T06:19:54.183Z,28.40
2018-07-15T06:22:30.071Z,28.60
2018-07-15T06:25:06.236Z,28.90
2018-07-15T06:27:41.873Z,28.80
2018-07-15T06:30:17.131Z,28.50
2018-07-15T06:32:52.574Z,27.70
2018-07-15T06:35:27.870Z,27.20
2018-07-15T06:38:03.553Z,26.70
2018-07-15T06:40:38.763Z,27.00
2018-07-15T06:43:14.293Z,27.00
2018-07-15T06:48:25.022Z,27.50
2018-07-15T06:51:00.405Z,27.40
2018-07-15T06:53:36.329Z,27.40
2018-07-15T06:56:11.774Z,28.20
2018-07-15T06:58:47.593Z,28.50
2018-07-15T07:01:22.881Z,28.30
2018-07-15T07:03:58.722Z,28.20
2018-07-15T07:09:09.410Z,28.90
2018-07-15T07:11:44.938Z,28.90
2018-07-15T07:14:20.736Z,29.40
2018-07-15T07:16:55.917Z,28.50
2018-07-15T07:19:31.290Z,28.90
2018-07-15T07:22:06.644Z,27.90
2018-07-15T07:24:42.282Z,27.90
2018-07-15T07:27:17.518Z,28.60
2018-07-15T07:29:53.278Z,28.90
2018-07-15T07:32:28.802Z,29.30
2018-07-15T07:35:04.474Z,28.60
2018-07-15T07:37:39.894Z,27.70
2018-07-15T07:40:15.674Z,26.70
2018-07-15T07:45:26.670Z,26.70
2018-07-15T07:48:02.074Z,26.60
2018-07-15T07:50:37.757Z,26.80
2018-07-15T07:53:13.223Z,26.00
2018-07-15T07:55:48.850Z,26.00
2018-07-15T07:58:24.345Z,26.30
2018-07-15T08:00:59.951Z,25.70
2018-07-15T08:06:10.698Z,26.00
2018-07-15T08:08:46.184Z,26.00
2018-07-15T08:11:21.955Z,26.00
2018-07-15T08:13:57.337Z,25.10
2018-07-15T08:16:32.823Z,23.90
2018-07-15T08:19:08.287Z,23.60
2018-07-15T08:21:44.115Z,23.40
2018-07-15T08:24:19.544Z,22.80
2018-07-15T08:26:55.022Z,22.70
2018-07-15T08:29:30.488Z,22.40
2018-07-15T08:32:05.905Z,22.30
2018-07-15T08:34:41.088Z,22.30
2018-07-15T08:37:16.602Z,22.50
2018-07-15T08:39:52.330Z,22.60
2018-07-15T08:42:28.093Z,22.50
2018-07-15T08:45:03.329Z,22.50
2018-07-15T08:47:38.857Z,22.60
2018-07-15T08:50:14.349Z,22.90
2018-07-15T08:52:49.838Z,23.00
2018-07-15T08:55:25.094Z,23.10
2018-07-15T08:58:01.178Z,23.20
2018-07-15T09:00:36.690Z,23.30
2018-07-15T09:03:12.233Z,23.40
2018-07-15T09:05:47.608Z,23.20
2018-07-15T09:08:23.184Z,23.40
2018-07-15T09:10:58.616Z,23.70
2018-07-15T09:13:34.158Z,23.50
2018-07-15T09:16:09.638Z,23.80
2018-07-15T09:18:45.049Z,23.80
2018-07-15T09:21:20.415Z,23.90
2018-07-15T09:23:56.066Z,23.90
2018-07-15T09:26:31.564Z,23.80
2018-07-15T09:31:43.045Z,24.90
2018-07-15T09:34:18.646Z,25.50
2018-07-15T09:36:54.130Z,25.60
2018-07-15T09:39:29.632Z,25.80
2018-07-15T09:42:05.190Z,25.50
2018-07-15T09:44:40.925Z,25.40
2018-07-15T09:47:16.145Z,25.30
2018-07-15T09:49:51.715Z,25.50
2018-07-15T09:52:27.205Z,25.50
2018-07-15T09:55:02.705Z,25.20
2018-07-15T09:57:38.256Z,24.30
2018-07-15T10:00:19.120Z,24.40
2018-07-15T10:02:54.422Z,24.30
2018-07-15T10:05:30.022Z,23.80
2018-07-15T10:08:05.361Z,23.20
2018-07-15T10:10:41.024Z,24.10
2018-07-15T10:13:16.418Z,24.90
2018-07-15T10:15:52.221Z,25.00
2018-07-15T10:18:27.694Z,25.00
2018-07-15T10:21:03.397Z,24.50
2018-07-15T10:23:38.939Z,24.20
2018-07-15T10:26:14.517Z,23.70
2018-07-15T10:28:50.285Z,23.90
2018-07-15T10:31:25.906Z,23.90
2018-07-15T10:34:01.575Z,23.80
2018-07-15T10:36:37.045Z,23.90
2018-07-15T10:39:13.030Z,24.00
2018-07-15T10:41:48.603Z,24.20
2018-07-15T10:44:23.826Z,25.00
2018-07-15T10:46:59.387Z,25.10
2018-07-15T10:49:34.625Z,25.00
2018-07-15T10:52:10.209Z,25.10
2018-07-15T10:57:20.965Z,25.00
2018-07-15T11:02:32.263Z,25.70
2018-07-15T11:05:08.013Z,25.70
2018-07-15T11:07:43.466Z,26.10
2018-07-15T11:10:18.678Z,25.80
2018-07-15T11:12:54.113Z,25.60
2018-07-15T11:15:29.624Z,26.10
2018-07-15T11:18:05.801Z,26.10
2018-07-15T11:20:41.505Z,25.60
2018-07-15T11:23:17.061Z,25.40
2018-07-15T11:25:52.495Z,25.30
2018-07-15T11:28:28.262Z,25.00
2018-07-15T11:31:04.090Z,25.00
2018-07-15T11:33:39.725Z,25.00
2018-07-15T11:36:15.077Z,25.20
2018-07-15T11:38:50.666Z,25.30
2018-07-15T11:41:26.224Z,25.30
2018-07-15T11:44:02.162Z,25.00
2018-07-15T11:46:37.666Z,24.70
2018-07-15T11:49:13.065Z,24.80
2018-07-15T11:51:48.649Z,24.80
2018-07-15T11:54:24.285Z,25.00
2018-07-15T11:56:59.700Z,25.00
2018-07-15T11:59:35.450Z,25.40
2018-07-15T12:02:10.668Z,25.70
2018-07-15T12:04:46.151Z,25.70
2018-07-15T12:07:21.627Z,25.70
2018-07-15T12:09:57.085Z,25.40
2018-07-15T12:12:32.367Z,25.70
2018-07-15T12:15:08.015Z,25.80
2018-07-15T12:17:43.586Z,25.90
2018-07-15T12:20:19.117Z,25.70
2018-07-15T12:22:54.575Z,25.40
2018-07-15T12:25:29.893Z,25.00
2018-07-15T12:28:05.262Z,25.00
2018-07-15T12:30:41.301Z,24.90
2018-07-15T12:33:16.751Z,24.90
2018-07-15T12:35:52.197Z,25.20
2018-07-15T12:38:27.540Z,25.30
2018-07-15T12:41:03.014Z,25.80
2018-07-15T12:43:38.240Z,26.10
2018-07-15T12:46:13.965Z,26.30
2018-07-15T12:48:49.474Z,25.90
2018-07-15T12:51:25.001Z,25.70
2018-07-15T12:54:00.206Z,25.60
2018-07-15T12:56:35.745Z,26.00
2018-07-15T12:59:11.426Z,26.60
2018-07-15T13:01:46.946Z,26.50
2018-07-15T13:04:22.354Z,26.50
2018-07-15T13:06:57.842Z,26.70
2018-07-15T13:09:33.364Z,26.90
2018-07-15T13:12:09.097Z,26.50
2018-07-15T13:14:44.618Z,26.20
2018-07-15T13:17:20.333Z,26.20
2018-07-15T13:19:55.725Z,26.40
2018-07-15T13:22:31.441Z,26.10
2018-07-15T13:25:06.796Z,25.80
2018-07-15T13:27:42.738Z,26.00
2018-07-15T13:32:53.311Z,26.40
2018-07-15T13:38:04.197Z,27.00
2018-07-15T13:43:15.193Z,26.80
2018-07-15T13:45:50.695Z,26.50
2018-07-15T13:48:26.293Z,26.10
2018-07-15T13:51:01.894Z,26.20
2018-07-15T13:53:37.385Z,26.40
2018-07-15T13:56:12.863Z,26.60
2018-07-15T13:58:48.686Z,26.60
2018-07-15T14:01:24.246Z,26.90
2018-07-15T14:04:00.043Z,27.00
2018-07-15T14:06:35.551Z,27.20
2018-07-15T14:09:11.190Z,26.80
2018-07-15T14:11:46.693Z,26.20
2018-07-15T14:14:22.379Z,25.70
2018-07-15T14:16:57.721Z,25.70
2018-07-15T14:19:33.289Z,25.90
2018-07-15T14:22:08.625Z,26.30
2018-07-15T14:24:44.178Z,26.40
2018-07-15T14:27:19.441Z,26.30
2018-07-15T14:29:54.869Z,26.40
2018-07-15T14:32:30.787Z,26.50
2018-07-15T14:35:06.644Z,26.40
2018-07-15T14:37:42.076Z,26.70
2018-07-15T14:40:17.849Z,26.80
2018-07-15T14:42:53.021Z,26.70
2018-07-15T14:45:28.642Z,26.10
2018-07-15T14:48:04.073Z,25.80
2018-07-15T14:50:39.641Z,25.90
2018-07-15T14:53:14.944Z,26.00
2018-07-15T14:55:50.473Z,26.40
2018-07-15T14:58:26.185Z,26.50
2018-07-15T15:01:01.926Z,26.00
2018-07-15T15:03:37.230Z,25.90
2018-07-15T15:06:12.714Z,26.00
2018-07-15T15:08:48.140Z,26.20
2018-07-15T15:11:23.911Z,26.00
2018-07-15T15:13:59.462Z,25.40
2018-07-15T15:16:35.236Z,25.30
2018-07-15T15:19:11.258Z,24.90
2018-07-15T15:21:46.822Z,24.50
2018-07-15T15:24:22.232Z,24.50
2018-07-15T15:26:58.029Z,24.40
2018-07-15T15:29:33.511Z,24.80
2018-07-15T15:32:09.015Z,25.10
2018-07-15T15:34:44.309Z,25.50
2018-07-15T15:37:19.906Z,25.60
2018-07-15T15:39:55.428Z,25.90
2018-07-15T15:42:31.081Z,25.90
2018-07-15T15:45:12.722Z,25.90
2018-07-15T15:47:48.338Z,26.00
2018-07-15T15:50:23.693Z,26.20
2018-07-15T15:52:59.225Z,26.10
2018-07-15T15:55:34.761Z,26.30
2018-07-15T15:58:10.560Z,26.20
2018-07-15T16:00:46.054Z,26.20
2018-07-15T16:03:21.564Z,26.10
2018-07-15T16:05:57.080Z,26.20
2018-07-15T16:08:32.409Z,26.30
2018-07-15T16:11:07.662Z,26.30
2018-07-15T16:13:43.198Z,26.30
2018-07-15T16:16:18.569Z,26.10
2018-07-15T16:18:54.090Z,26.00
2018-07-15T16:21:29.659Z,25.80
2018-07-15T16:26:40.254Z,26.00
2018-07-15T16:29:15.763Z,26.00
2018-07-15T16:31:51.074Z,25.90
2018-07-15T16:34:26.670Z,25.60
2018-07-15T16:39:37.541Z,25.30
2018-07-15T16:42:13.037Z,25.20
2018-07-15T16:44:48.639Z,25.10
2018-07-15T16:47:24.130Z,25.10
2018-07-15T16:49:59.739Z,24.90
2018-07-15T16:52:35.236Z,24.80
2018-07-15T16:55:10.929Z,24.60
2018-07-15T16:57:46.477Z,24.60
2018-07-15T17:00:22.337Z,24.40
2018-07-15T17:02:57.737Z,24.40
2018-07-15T17:05:33.224Z,24.30
2018-07-15T17:08:08.632Z,24.20
2018-07-15T17:10:44.113Z,24.20
2018-07-15T17:13:19.601Z,24.20
2018-07-15T17:15:55.213Z,24.10
2018-07-15T17:18:30.710Z,24.00
2018-07-15T17:21:06.279Z,23.90
2018-07-15T17:23:41.532Z,23.90
2018-07-15T17:26:17.197Z,23.80
2018-07-15T17:28:52.731Z,23.80
2018-07-15T17:31:28.303Z,23.80
2018-07-15T17:34:03.724Z,23.70
2018-07-15T17:36:39.285Z,23.60
2018-07-15T17:39:14.821Z,23.50
2018-07-15T17:41:50.271Z,23.50
2018-07-15T17:44:25.769Z,23.40
2018-07-15T17:47:01.281Z,23.40
2018-07-15T17:49:36.754Z,23.40
2018-07-15T17:52:12.161Z,23.40
2018-07-15T17:54:47.709Z,23.40
2018-07-15T17:57:23.253Z,23.40
2018-07-15T17:59:58.972Z,23.40
2018-07-15T18:02:34.453Z,23.40
2018-07-15T18:05:10.015Z,23.40
2018-07-15T18:07:45.761Z,23.40
2018-07-15T18:10:21.281Z,23.40
2018-07-15T18:12:56.846Z,23.40
2018-07-15T18:15:32.251Z,23.30
2018-07-15T18:20:43.371Z,23.20
2018-07-15T18:23:19.242Z,23.20
2018-07-15T18:25:54.462Z,23.30
2018-07-15T18:28:29.934Z,23.30
2018-07-15T18:31:05.351Z,23.40
2018-07-15T18:33:40.932Z,23.30
2018-07-15T18:36:16.349Z,23.30
2018-07-15T18:38:51.814Z,23.20
2018-07-15T18:41:27.392Z,23.10
2018-07-15T18:44:03.522Z,23.00
2018-07-15T18:46:38.869Z,23.00
2018-07-15T18:49:14.410Z,22.90
2018-07-15T18:51:49.694Z,22.90
2018-07-15T18:54:25.313Z,22.80
2018-07-15T18:57:00.621Z,22.80
2018-07-15T18:59:36.505Z,22.80
2018-07-15T19:04:47.718Z,22.70
2018-07-15T19:07:23.200Z,22.60
2018-07-15T19:09:58.891Z,22.50
2018-07-15T19:15:09.885Z,22.40
2018-07-15T19:17:45.385Z,22.30
2018-07-15T19:20:20.993Z,22.20
2018-07-15T19:22:56.401Z,22.10
2018-07-15T19:25:31.875Z,22.00
2018-07-15T19:28:07.212Z,21.80
2018-07-15T19:30:42.685Z,21.70
2018-07-15T19:33:18.244Z,21.60
2018-07-15T19:35:53.659Z,21.40
2018-07-15T19:38:29.082Z,21.30
2018-07-15T19:41:05.790Z,21.30
2018-07-15T19:43:41.142Z,21.10
2018-07-15T19:46:16.805Z,21.00
2018-07-15T19:48:52.578Z,20.90
2018-07-15T19:51:28.175Z,20.90
2018-07-15T19:54:03.750Z,20.90
2018-07-15T19:56:39.419Z,20.80
2018-07-15T19:59:14.805Z,20.70
2018-07-15T20:01:50.759Z,20.60
2018-07-15T20:04:26.275Z,20.50
2018-07-15T20:07:01.865Z,20.50
2018-07-15T20:09:37.449Z,20.50
2018-07-15T20:12:12.958Z,20.60
2018-07-15T20:14:48.464Z,20.70
2018-07-15T20:17:24.053Z,20.70
2018-07-15T20:19:59.516Z,20.70
2018-07-15T20:22:35.053Z,20.70
2018-07-15T20:25:10.520Z,20.70
2018-07-15T20:30:21.438Z,20.50
2018-07-15T20:32:57.031Z,20.40
2018-07-15T20:35:32.450Z,20.40
2018-07-15T20:38:08.109Z,20.40
2018-07-15T20:40:43.501Z,20.30
2018-07-15T20:45:54.327Z,20.10
2018-07-15T20:48:30.036Z,20.00
2018-07-15T20:51:05.514Z,19.90
2018-07-15T20:53:41.314Z,19.90
2018-07-15T20:56:16.898Z,19.80
2018-07-15T21:01:27.964Z,19.70
2018-07-15T21:04:04.429Z,19.60
2018-07-15T21:06:39.811Z,19.60
2018-07-15T21:09:15.215Z,19.50
2018-07-15T21:11:50.515Z,19.40
2018-07-15T21:14:26.104Z,19.30
2018-07-15T21:17:02.159Z,19.30
2018-07-15T21:19:37.765Z,19.30
2018-07-15T21:22:13.217Z,19.20
2018-07-15T21:24:48.666Z,19.20
2018-07-15T21:27:24.185Z,19.20
2018-07-15T21:29:59.749Z,19.20
2018-07-15T21:32:35.113Z,19.10
2018-07-15T21:35:10.683Z,19.00
2018-07-15T21:40:21.365Z,18.80
2018-07-15T21:42:56.610Z,18.70
2018-07-15T21:45:31.946Z,18.60
2018-07-15T21:48:07.409Z,18.50
2018-07-15T21:50:43.055Z,18.40
2018-07-15T21:53:18.585Z,18.40
2018-07-15T21:55:54.247Z,18.30
2018-07-15T21:58:29.781Z,18.20
2018-07-15T22:01:05.569Z,18.20
2018-07-15T22:03:40.796Z,18.10
2018-07-15T22:06:33.638Z,18.00
2018-07-15T22:09:26.997Z,18.00
2018-07-15T22:12:02.700Z,18.00
2018-07-15T22:14:38.197Z,18.00
2018-07-15T22:17:13.761Z,18.10
2018-07-15T22:19:49.698Z,18.10
2018-07-15T22:22:25.400Z,18.10
2018-07-15T22:25:00.974Z,18.00
2018-07-15T22:27:36.619Z,18.00
2018-07-15T22:30:12.040Z,18.00
2018-07-15T22:32:47.633Z,18.00
2018-07-15T22:35:23.079Z,18.00
2018-07-15T22:37:58.850Z,17.90
2018-07-15T22:40:34.230Z,17.90
2018-07-15T22:43:09.847Z,17.80
2018-07-15T22:45:45.341Z,17.70
2018-07-15T22:48:20.949Z,17.70
2018-07-15T22:50:56.423Z,17.70
2018-07-15T22:53:32.029Z,17.70
2018-07-15T22:56:07.518Z,17.60
2018-07-15T22:58:43.082Z,17.60
2018-07-15T23:01:18.738Z,17.50
2018-07-15T23:03:54.531Z,17.50
2018-07-15T23:06:29.998Z,17.40
2018-07-15T23:09:06.965Z,17.40
2018-07-15T23:11:42.253Z,17.30
2018-07-15T23:14:17.745Z,17.30
2018-07-15T23:16:53.103Z,17.30
2018-07-15T23:19:28.733Z,17.20
2018-07-15T23:22:04.034Z,17.10
2018-07-15T23:24:39.731Z,17.10
2018-07-15T23:27:15.255Z,17.00
2018-07-15T23:29:50.750Z,17.00
2018-07-15T23:32:26.968Z,16.90
2018-07-15T23:35:02.554Z,16.90
2018-07-15T23:37:37.841Z,16.80
2018-07-15T23:40:13.425Z,16.90
2018-07-15T23:42:48.786Z,16.80
2018-07-15T23:45:25.181Z,16.80
2018-07-15T23:48:00.536Z,16.70
2018-07-15T23:50:36.003Z,16.70
2018-07-15T23:53:11.237Z,16.80
2018-07-15T23:55:46.912Z,16.80
2018-07-15T23:58:22.186Z,16.70
